Black Hawk, Mississippi
Current Conditions -  °F | °C
As of 12:53 AM on Friday 19 Dec 2014 (Local Time) from KGWO Reporting Station
Overcast Overcast  
Wind Chill: 48°   Ceiling: 3700
Heat Index: 48°   Visibility: 10mi
Dew Point: 41°   Wind: 3mph
Humidity: 77%   Direction: 40°NE
Pressure: 30.21"   Gusts: NA
Location:  33.3683°N, 89.9772°W
Report Text: KGWO 190653Z AUTO 04003KT 10SM OVC037 09/05 A3021 RMK AO2 SLP229 T00890050
Loading
Personal Weather Stations






























Interactive Weather Map New forecast layout! Learn more

10-Day Weather Forecast

Advertisements
Track Severe Weather on mobile